createdAt,value
2019-05-09T00:02:44.382Z,76.60
2019-05-09T00:09:29.247Z,77.90
2019-05-09T00:16:14.693Z,77.70
2019-05-09T00:23:03.148Z,78.80
2019-05-09T00:29:48.983Z,78.60
2019-05-09T00:36:34.306Z,79.00
2019-05-09T00:43:19.403Z,77.90
2019-05-09T00:50:06.591Z,75.60
2019-05-09T00:56:53.796Z,73.60
2019-05-09T01:03:38.155Z,72.90
2019-05-09T01:10:23.686Z,71.40
2019-05-09T01:17:08.780Z,70.90
2019-05-09T01:23:54.160Z,70.40
2019-05-09T01:30:39.142Z,69.00
2019-05-09T01:37:24.010Z,68.50
2019-05-09T01:44:08.930Z,68.10
2019-05-09T01:50:53.890Z,68.90
2019-05-09T01:57:39.648Z,68.40
2019-05-09T02:04:24.702Z,68.70
2019-05-09T02:11:09.707Z,71.30
2019-05-09T02:18:01.574Z,73.00
2019-05-09T02:24:44.093Z,74.60
2019-05-09T02:31:29.087Z,75.70
2019-05-09T02:38:14.085Z,74.40
2019-05-09T02:44:59.716Z,71.80
2019-05-09T02:51:44.664Z,70.50
2019-05-09T02:58:31.151Z,72.00
2019-05-09T03:05:19.251Z,72.70
2019-05-09T03:12:21.428Z,73.90
2019-05-09T03:18:49.627Z,74.00
2019-05-09T03:25:34.660Z,74.90
2019-05-09T03:32:20.747Z,76.50
2019-05-09T03:39:08.259Z,77.70
2019-05-09T03:46:03.699Z,78.60
2019-05-09T03:52:49.623Z,80.60
2019-05-09T03:59:34.807Z,82.10
2019-05-09T04:06:19.678Z,82.00
2019-05-09T04:13:04.940Z,79.80
2019-05-09T04:19:49.959Z,77.20
2019-05-09T04:26:38.085Z,73.90
2019-05-09T04:33:23.059Z,70.90
2019-05-09T04:40:08.345Z,71.30
2019-05-09T04:46:54.026Z,70.80
2019-05-09T04:53:40.076Z,70.20
2019-05-09T05:00:27.352Z,71.30
2019-05-09T05:07:12.370Z,70.20
2019-05-09T05:13:58.700Z,68.00
2019-05-09T05:20:43.916Z,63.70
2019-05-09T05:27:28.875Z,61.00
2019-05-09T05:34:18.320Z,46.00
2019-05-09T05:41:03.732Z,44.30
2019-05-09T05:47:52.878Z,49.20
2019-05-09T05:54:38.029Z,55.80
2019-05-09T06:01:23.935Z,58.10
2019-05-09T06:08:08.880Z,59.20
2019-05-09T06:14:53.820Z,59.40
2019-05-09T06:21:38.858Z,59.80
2019-05-09T06:28:23.794Z,59.30
2019-05-09T06:35:10.620Z,60.50
2019-05-09T06:41:57.495Z,59.60
2019-05-09T06:48:42.434Z,58.60
2019-05-09T06:55:29.487Z,58.20
2019-05-09T07:02:28.384Z,50.20
2019-05-09T07:09:17.336Z,37.70
2019-05-09T07:16:02.067Z,33.60
2019-05-09T07:22:50.672Z,37.10
2019-05-09T07:29:37.620Z,42.40
2019-05-09T07:36:23.248Z,48.20
2019-05-09T07:43:08.084Z,47.50
2019-05-09T07:49:53.305Z,46.60
2019-05-09T07:56:38.240Z,47.70
2019-05-09T08:03:23.133Z,48.30
2019-05-09T08:10:11.093Z,49.30
2019-05-09T08:16:55.052Z,51.80
2019-05-09T08:23:40.033Z,51.60
2019-05-09T08:30:25.035Z,49.10
2019-05-09T08:37:12.612Z,49.40
2019-05-09T08:43:57.555Z,53.40
2019-05-09T08:50:53.640Z,54.10
2019-05-09T08:57:38.657Z,55.30
2019-05-09T09:04:23.588Z,53.40
2019-05-09T09:11:08.780Z,55.60
2019-05-09T09:17:53.839Z,58.00
2019-05-09T09:24:40.740Z,59.00
2019-05-09T09:31:25.601Z,58.10
2019-05-09T09:38:10.615Z,57.20
2019-05-09T09:44:55.549Z,57.30
2019-05-09T09:51:40.484Z,56.40
2019-05-09T09:58:27.371Z,54.00
2019-05-09T10:05:12.286Z,49.20
2019-05-09T10:12:00.540Z,43.20
2019-05-09T10:18:48.725Z,42.60
2019-05-09T10:25:33.652Z,42.60
2019-05-09T10:32:18.572Z,42.60
2019-05-09T10:39:04.771Z,42.90
2019-05-09T10:46:08.292Z,38.30
2019-05-09T10:52:53.596Z,38.60
2019-05-09T10:59:38.552Z,40.90
2019-05-09T11:06:23.903Z,38.60
2019-05-09T11:13:09.913Z,39.70
2019-05-09T11:19:58.477Z,39.80
2019-05-09T11:26:42.108Z,40.50
2019-05-09T11:33:27.787Z,42.00
2019-05-09T11:40:13.244Z,42.40
2019-05-09T11:46:58.430Z,44.10
2019-05-09T11:53:43.359Z,45.40
2019-05-09T12:00:29.414Z,47.70
2019-05-09T12:07:14.543Z,51.80
2019-05-09T12:13:59.408Z,54.20
2019-05-09T12:20:44.262Z,57.60
2019-05-09T12:27:29.119Z,60.30
2019-05-09T12:34:14.051Z,60.10
2019-05-09T12:41:00.525Z,58.70
2019-05-09T12:47:45.748Z,58.40
2019-05-09T12:54:30.696Z,59.20
2019-05-09T13:01:17.995Z,57.90
2019-05-09T13:08:02.217Z,56.70
2019-05-09T13:14:48.593Z,57.10
2019-05-09T13:21:33.815Z,57.00
2019-05-09T13:28:18.723Z,56.30
2019-05-09T13:35:04.729Z,56.70
2019-05-09T13:41:49.652Z,55.30
2019-05-09T13:48:59.977Z,57.00
2019-05-09T13:55:22.814Z,59.70
2019-05-09T14:02:07.963Z,60.70
2019-05-09T14:08:52.895Z,62.30
2019-05-09T14:15:37.846Z,61.70
2019-05-09T14:22:22.847Z,61.10
2019-05-09T14:29:12.120Z,58.50
2019-05-09T14:35:54.690Z,56.90
2019-05-09T14:42:40.713Z,58.00
2019-05-09T14:49:39.769Z,56.90
2019-05-09T14:56:13.614Z,55.10
2019-05-09T15:02:59.321Z,54.30
2019-05-09T15:09:44.390Z,53.90
2019-05-09T15:16:29.609Z,56.40
2019-05-09T15:23:15.615Z,60.20
2019-05-09T15:30:00.566Z,62.40
2019-05-09T15:36:48.182Z,64.10
2019-05-09T15:43:33.219Z,62.40
2019-05-09T15:50:22.731Z,61.00
2019-05-09T15:57:04.938Z,63.60
2019-05-09T16:03:49.876Z,62.00
2019-05-09T16:10:37.276Z,60.40
2019-05-09T16:17:21.922Z,59.70
2019-05-09T16:24:08.151Z,60.80
2019-05-09T16:30:53.230Z,61.50
2019-05-09T16:37:56.825Z,63.90
2019-05-09T16:44:24.992Z,64.80
2019-05-09T16:51:09.996Z,63.70
2019-05-09T16:57:57.234Z,62.00
2019-05-09T17:04:41.616Z,61.80
2019-05-09T17:11:27.837Z,61.80
2019-05-09T17:18:13.227Z,62.40
2019-05-09T17:24:58.497Z,62.30
2019-05-09T17:31:43.354Z,62.20
2019-05-09T17:38:28.315Z,61.80
2019-05-09T17:45:15.404Z,61.40
2019-05-09T17:52:00.432Z,61.70
2019-05-09T17:58:45.415Z,61.60
2019-05-09T18:05:30.560Z,61.20
2019-05-09T18:12:15.520Z,62.20
2019-05-09T18:19:01.043Z,63.30
2019-05-09T18:25:46.226Z,64.40
2019-05-09T18:32:39.200Z,64.30
2019-05-09T18:39:27.794Z,65.30
2019-05-09T18:46:10.695Z,66.10
2019-05-09T18:52:57.346Z,67.30
2019-05-09T18:59:42.292Z,67.80
2019-05-09T19:06:27.449Z,68.20
2019-05-09T19:13:12.583Z,68.70
2019-05-09T19:19:59.273Z,68.70
2019-05-09T19:26:44.456Z,68.50
2019-05-09T19:33:29.942Z,68.00
2019-05-09T19:40:20.022Z,67.50
2019-05-09T19:47:02.853Z,67.70
2019-05-09T19:53:48.349Z,67.70
2019-05-09T20:00:33.995Z,67.70
2019-05-09T20:07:19.885Z,67.70
2019-05-09T20:14:09.659Z,67.20
2019-05-09T20:20:55.671Z,67.70
2019-05-09T20:27:41.246Z,67.70
2019-05-09T20:34:29.893Z,67.40
2019-05-09T20:41:15.904Z,67.20
2019-05-09T20:48:01.612Z,66.80
2019-05-09T20:54:47.258Z,66.80
2019-05-09T21:01:32.675Z,66.90
2019-05-09T21:08:18.401Z,66.60
2019-05-09T21:15:06.730Z,66.60
2019-05-09T21:21:52.247Z,66.70
2019-05-09T21:28:37.483Z,66.70
2019-05-09T21:35:22.367Z,67.10
2019-05-09T21:42:07.455Z,67.20
2019-05-09T21:48:52.555Z,67.70
2019-05-09T21:55:37.522Z,67.90
2019-05-09T22:02:22.775Z,68.30
2019-05-09T22:09:10.120Z,68.70
2019-05-09T22:15:55.147Z,69.70
2019-05-09T22:22:40.017Z,71.20
2019-05-09T22:29:24.943Z,71.60
2019-05-09T22:36:09.819Z,71.90
2019-05-09T22:42:55.268Z,73.00
2019-05-09T22:49:40.207Z,72.90
2019-05-09T22:56:25.071Z,73.00
2019-05-09T23:03:09.931Z,73.20
2019-05-09T23:09:55.043Z,72.50
2019-05-09T23:16:41.168Z,71.60
2019-05-09T23:23:36.609Z,71.20
2019-05-09T23:30:21.499Z,70.90
2019-05-09T23:37:06.404Z,70.00
2019-05-09T23:43:51.291Z,71.00
2019-05-09T23:50:36.147Z,71.70
2019-05-09T23:57:39.127Z,71.60
